createdAt,value
2019-01-25T00:00:34.454Z,2.70
2019-01-25T00:03:09.962Z,3.20
2019-01-25T00:05:35.792Z,2.93
2019-01-25T00:08:04.573Z,2.60
2019-01-25T00:10:32.981Z,3.07
2019-01-25T00:13:01.296Z,2.67
2019-01-25T00:15:31.321Z,4.30
2019-01-25T00:17:59.696Z,3.57
2019-01-25T00:20:27.829Z,5.50
2019-01-25T00:22:56.205Z,6.33
2019-01-25T00:25:24.333Z,4.37
2019-01-25T00:27:52.601Z,4.20
2019-01-25T00:30:20.945Z,3.77
2019-01-25T00:32:49.288Z,3.57
2019-01-25T00:35:17.725Z,6.77
2019-01-25T00:37:46.034Z,4.80
2019-01-25T00:40:14.728Z,3.60
2019-01-25T00:42:42.860Z,4.37
2019-01-25T00:45:12.336Z,5.33
2019-01-25T00:47:40.522Z,4.50
2019-01-25T00:50:11.120Z,4.47
2019-01-25T00:52:39.416Z,4.87
2019-01-25T00:55:07.740Z,3.73
2019-01-25T00:57:36.022Z,4.17
2019-01-25T01:00:05.865Z,3.53
2019-01-25T01:02:34.088Z,3.57
2019-01-25T01:05:02.273Z,3.67
2019-01-25T01:07:30.490Z,3.30
2019-01-25T01:09:58.613Z,3.77
2019-01-25T01:12:26.848Z,6.30
2019-01-25T01:14:55.058Z,4.23
2019-01-25T01:17:23.429Z,3.07
2019-01-25T01:19:51.743Z,2.77
2019-01-25T01:22:20.054Z,2.80
2019-01-25T01:24:48.416Z,2.33
2019-01-25T01:27:16.592Z,2.87
2019-01-25T01:29:44.852Z,2.20
2019-01-25T01:32:13.082Z,3.33
2019-01-25T01:34:41.421Z,1.70
2019-01-25T01:37:09.716Z,2.37
2019-01-25T01:39:38.006Z,2.13
2019-01-25T01:42:06.129Z,3.50
2019-01-25T01:44:34.392Z,1.77
2019-01-25T01:47:02.520Z,2.73
2019-01-25T01:49:30.929Z,2.33
2019-01-25T01:51:59.052Z,1.90
2019-01-25T01:54:27.316Z,1.83
2019-01-25T01:56:55.432Z,4.10
2019-01-25T01:59:24.020Z,3.00
2019-01-25T02:01:52.229Z,2.10
2019-01-25T02:04:20.629Z,3.17
2019-01-25T02:06:48.937Z,2.50
2019-01-25T02:09:17.969Z,2.30
2019-01-25T02:11:46.232Z,3.57
2019-01-25T02:14:14.353Z,4.17
2019-01-25T02:16:42.604Z,4.73
2019-01-25T02:19:10.828Z,2.47
2019-01-25T02:21:39.092Z,3.50
2019-01-25T02:24:07.408Z,5.40
2019-01-25T02:26:35.593Z,4.10
2019-01-25T02:29:03.930Z,3.10
2019-01-25T02:31:32.044Z,2.80
2019-01-25T02:34:00.761Z,2.90
2019-01-25T02:36:29.084Z,5.27
2019-01-25T02:38:57.317Z,4.03
2019-01-25T02:41:25.431Z,2.50
2019-01-25T02:43:53.698Z,2.40
2019-01-25T02:46:21.821Z,2.37
2019-01-25T02:48:50.062Z,3.00
2019-01-25T02:51:18.273Z,3.20
2019-01-25T02:53:46.529Z,3.40
2019-01-25T02:56:14.720Z,2.77
2019-01-25T02:58:43.003Z,2.53
2019-01-25T03:01:11.117Z,4.03
2019-01-25T03:03:39.373Z,2.57
2019-01-25T03:06:07.685Z,2.03
2019-01-25T03:08:35.857Z,3.00
2019-01-25T03:11:04.548Z,2.80
2019-01-25T03:13:32.731Z,3.33
2019-01-25T03:16:00.908Z,2.80
2019-01-25T03:18:29.190Z,2.87
2019-01-25T03:20:57.296Z,3.40
2019-01-25T03:23:25.479Z,3.00
2019-01-25T03:25:53.731Z,3.13
2019-01-25T03:28:21.919Z,2.50
2019-01-25T03:30:50.078Z,2.13
2019-01-25T03:33:18.322Z,2.67
2019-01-25T03:35:46.434Z,2.80
2019-01-25T03:38:14.667Z,2.63
2019-01-25T03:40:42.872Z,3.40
2019-01-25T03:43:11.176Z,3.57
2019-01-25T03:45:39.509Z,2.43
2019-01-25T03:48:08.147Z,3.83
2019-01-25T03:50:36.458Z,3.00
2019-01-25T03:53:04.808Z,4.47
2019-01-25T03:55:33.208Z,3.13
2019-01-25T03:58:01.593Z,2.53
2019-01-25T04:00:30.017Z,3.53
2019-01-25T04:02:58.300Z,4.33
2019-01-25T04:05:26.692Z,3.50
2019-01-25T04:07:54.903Z,2.63
2019-01-25T04:10:24.216Z,2.50
2019-01-25T04:12:52.518Z,3.57
2019-01-25T04:15:24.760Z,3.47
2019-01-25T04:17:53.153Z,2.43
2019-01-25T04:20:21.536Z,3.40
2019-01-25T04:22:49.967Z,2.53
2019-01-25T04:25:19.672Z,2.67
2019-01-25T04:27:48.058Z,2.77
2019-01-25T04:30:21.588Z,2.20
2019-01-25T04:32:50.900Z,2.57
2019-01-25T04:35:19.461Z,1.97
2019-01-25T04:37:47.888Z,3.97
2019-01-25T04:40:16.542Z,2.93
2019-01-25T04:42:45.668Z,5.77
2019-01-25T04:45:15.004Z,4.07
2019-01-25T04:47:43.257Z,3.47
2019-01-25T04:50:12.623Z,4.03
2019-01-25T04:52:41.011Z,3.93
2019-01-25T04:55:14.809Z,8.47
2019-01-25T04:57:43.077Z,3.10
2019-01-25T05:00:13.120Z,3.97
2019-01-25T05:02:41.568Z,2.13
2019-01-25T05:05:10.973Z,2.93
2019-01-25T05:07:39.265Z,4.93
2019-01-25T05:10:07.556Z,3.63
2019-01-25T05:12:35.684Z,3.97
2019-01-25T05:15:04.675Z,5.97
2019-01-25T05:17:32.793Z,3.80
2019-01-25T05:20:01.085Z,5.90
2019-01-25T05:22:29.222Z,3.77
2019-01-25T05:24:57.727Z,3.70
2019-01-25T05:27:25.860Z,3.53
2019-01-25T05:29:54.710Z,3.20
2019-01-25T05:32:25.045Z,3.33
2019-01-25T05:34:53.239Z,5.87
2019-01-25T05:37:21.364Z,6.27
2019-01-25T05:39:49.753Z,4.83
2019-01-25T05:42:18.661Z,3.47
2019-01-25T05:44:46.779Z,5.60
2019-01-25T05:47:14.981Z,5.70
2019-01-25T05:49:43.117Z,5.00
2019-01-25T05:52:15.241Z,5.17
2019-01-25T05:54:43.489Z,4.63
2019-01-25T05:57:11.605Z,6.10
2019-01-25T05:59:39.717Z,6.10
2019-01-25T06:02:08.081Z,5.17
2019-01-25T06:04:36.437Z,5.83
2019-01-25T06:07:04.754Z,6.33
2019-01-25T06:09:33.056Z,4.97
2019-01-25T06:12:01.512Z,6.97
2019-01-25T06:14:29.857Z,7.77
2019-01-25T06:16:58.175Z,5.37
2019-01-25T06:19:26.357Z,6.37
2019-01-25T06:21:56.076Z,6.03
2019-01-25T06:24:24.194Z,7.37
2019-01-25T06:26:52.561Z,8.33
2019-01-25T06:29:20.677Z,6.57
2019-01-25T06:31:49.102Z,7.70
2019-01-25T06:34:17.334Z,6.93
2019-01-25T06:36:45.580Z,5.97
2019-01-25T06:39:14.144Z,6.03
2019-01-25T06:41:44.109Z,7.83
2019-01-25T06:44:13.168Z,6.30
2019-01-25T06:46:41.473Z,6.37
2019-01-25T06:49:09.815Z,6.00
2019-01-25T06:51:38.104Z,8.20
2019-01-25T06:54:06.436Z,9.70
2019-01-25T06:56:34.773Z,8.67
2019-01-25T06:59:11.600Z,7.77
2019-01-25T07:01:51.864Z,6.80
2019-01-25T07:04:20.727Z,7.83
2019-01-25T07:06:49.212Z,7.87
2019-01-25T07:09:17.477Z,9.57
2019-01-25T07:11:51.549Z,8.60
2019-01-25T07:14:15.970Z,6.03
2019-01-25T07:16:44.237Z,8.43
2019-01-25T07:19:13.421Z,9.30
2019-01-25T07:21:41.648Z,7.43
2019-01-25T07:24:09.936Z,11.23
2019-01-25T07:26:38.312Z,10.65
2019-01-25T07:29:06.532Z,13.53
2019-01-25T07:31:34.999Z,9.20
2019-01-25T07:34:03.323Z,7.90
2019-01-25T07:36:31.582Z,8.53
2019-01-25T07:38:59.777Z,9.77
2019-01-25T07:41:28.100Z,8.63
2019-01-25T07:44:15.550Z,12.27
2019-01-25T07:47:03.833Z,10.48
2019-01-25T07:49:53.768Z,11.40
2019-01-25T07:52:28.339Z,7.87
2019-01-25T07:54:59.772Z,8.80
2019-01-25T07:57:30.794Z,12.33
2019-01-25T08:00:01.727Z,7.53
2019-01-25T08:02:32.750Z,8.50
2019-01-25T08:05:05.031Z,10.80
2019-01-25T08:07:36.789Z,7.63
2019-01-25T08:10:07.837Z,7.33
2019-01-25T08:12:36.477Z,8.53
2019-01-25T08:15:06.862Z,6.43
2019-01-25T08:17:35.324Z,6.57
2019-01-25T08:20:04.342Z,8.80
2019-01-25T08:22:33.900Z,7.90
2019-01-25T08:25:08.137Z,7.45
2019-01-25T08:27:37.066Z,11.33
2019-01-25T08:30:07.952Z,8.83
2019-01-25T08:32:36.258Z,8.87
2019-01-25T08:35:09.459Z,7.00
2019-01-25T08:37:38.662Z,10.07
2019-01-25T08:40:09.306Z,8.40
2019-01-25T08:42:37.833Z,8.60
2019-01-25T08:45:08.282Z,7.57
2019-01-25T08:47:36.742Z,10.17
2019-01-25T08:50:08.948Z,9.27
2019-01-25T08:52:37.257Z,7.63
2019-01-25T08:55:06.058Z,5.13
2019-01-25T08:57:34.492Z,8.03
2019-01-25T09:00:04.689Z,9.57
2019-01-25T09:02:33.266Z,9.63
2019-01-25T09:05:01.720Z,9.03
2019-01-25T09:07:30.434Z,12.23
2019-01-25T09:09:58.808Z,7.53
2019-01-25T09:12:27.436Z,8.50
2019-01-25T09:14:55.868Z,11.50
2019-01-25T09:17:24.359Z,6.13
2019-01-25T09:19:52.905Z,7.63
2019-01-25T09:22:21.466Z,7.30
2019-01-25T09:24:49.837Z,6.78
2019-01-25T09:27:18.146Z,9.00
2019-01-25T09:29:46.605Z,14.33
2019-01-25T09:32:15.401Z,10.40
2019-01-25T09:34:43.817Z,8.87
2019-01-25T09:37:12.525Z,7.13
2019-01-25T09:39:41.291Z,5.97
2019-01-25T09:42:09.601Z,15.00
2019-01-25T09:45:03.012Z,12.23
2019-01-25T09:47:33.711Z,8.67
2019-01-25T09:50:02.371Z,6.50
2019-01-25T09:52:30.947Z,7.03
2019-01-25T09:54:59.365Z,6.37
2019-01-25T09:57:27.738Z,6.13
2019-01-25T09:59:56.288Z,9.80
2019-01-25T10:02:24.684Z,7.93
2019-01-25T10:04:54.043Z,8.93
2019-01-25T10:07:22.858Z,9.23
2019-01-25T10:09:51.314Z,6.53
2019-01-25T10:12:19.712Z,9.80
2019-01-25T10:14:48.176Z,7.53
2019-01-25T10:17:16.621Z,6.37
2019-01-25T10:19:45.113Z,5.50
2019-01-25T10:22:15.783Z,4.97
2019-01-25T10:24:44.259Z,7.63
2019-01-25T10:27:12.659Z,5.77
2019-01-25T10:29:41.069Z,7.30
2019-01-25T10:32:09.829Z,6.37
2019-01-25T10:34:40.725Z,5.07
2019-01-25T10:37:09.601Z,7.60
2019-01-25T10:39:38.402Z,8.27
2019-01-25T10:42:06.850Z,7.50
2019-01-25T10:44:35.202Z,5.13
2019-01-25T10:47:03.786Z,9.08
2019-01-25T10:49:32.213Z,8.20
2019-01-25T10:52:00.622Z,6.50
2019-01-25T10:54:29.023Z,7.03
2019-01-25T10:56:57.460Z,8.90
2019-01-25T10:59:26.021Z,7.17
2019-01-25T11:01:54.889Z,7.37
2019-01-25T11:04:23.856Z,6.60
2019-01-25T11:06:52.266Z,6.63
2019-01-25T11:09:20.781Z,6.90
2019-01-25T11:11:49.089Z,6.33
2019-01-25T11:14:17.549Z,8.17
2019-01-25T11:16:45.877Z,4.93
2019-01-25T11:19:14.309Z,7.43
2019-01-25T11:21:42.744Z,5.33
2019-01-25T11:24:11.272Z,7.97
2019-01-25T11:26:39.768Z,8.97
2019-01-25T11:29:08.341Z,6.10
2019-01-25T11:31:36.669Z,7.33
2019-01-25T11:34:05.117Z,6.40
2019-01-25T11:36:33.529Z,6.03
2019-01-25T11:39:01.919Z,8.23
2019-01-25T11:41:32.241Z,6.07
2019-01-25T11:44:00.540Z,5.20
2019-01-25T11:46:28.969Z,4.93
2019-01-25T11:48:57.405Z,11.47
2019-01-25T11:51:25.771Z,7.50
2019-01-25T11:53:54.329Z,8.90
2019-01-25T11:56:22.721Z,7.27
2019-01-25T11:58:52.447Z,9.20
2019-01-25T12:01:20.804Z,6.93
2019-01-25T12:03:49.198Z,7.07
2019-01-25T12:06:17.658Z,8.53
2019-01-25T12:08:46.077Z,9.87
2019-01-25T12:11:14.576Z,8.00
2019-01-25T12:13:42.974Z,8.23
2019-01-25T12:16:11.442Z,6.07
2019-01-25T12:18:39.890Z,8.77
2019-01-25T12:21:08.313Z,8.23
2019-01-25T12:23:36.808Z,7.27
2019-01-25T12:26:05.614Z,10.28
2019-01-25T12:28:34.008Z,7.73
2019-01-25T12:31:02.397Z,9.57
2019-01-25T12:33:30.962Z,9.10
2019-01-25T12:35:59.383Z,8.87
2019-01-25T12:38:27.734Z,9.03
2019-01-25T12:40:56.394Z,6.13
2019-01-25T12:43:26.774Z,9.73
2019-01-25T12:45:55.200Z,10.33
2019-01-25T12:48:23.585Z,9.80
2019-01-25T12:50:59.114Z,8.77
2019-01-25T12:53:27.656Z,7.30
2019-01-25T12:55:56.066Z,7.93
2019-01-25T12:58:24.521Z,13.70
2019-01-25T13:00:52.845Z,8.27
2019-01-25T13:03:21.333Z,5.60
2019-01-25T13:05:49.874Z,6.77
2019-01-25T13:08:18.305Z,6.37
2019-01-25T13:10:46.834Z,7.90
2019-01-25T13:13:15.409Z,9.03
2019-01-25T13:15:43.858Z,9.13
2019-01-25T13:18:12.356Z,9.23
2019-01-25T13:20:42.997Z,6.70
2019-01-25T13:23:11.901Z,10.90
2019-01-25T13:25:40.369Z,8.50
2019-01-25T13:28:08.685Z,8.33
2019-01-25T13:30:37.222Z,7.70
2019-01-25T13:33:06.241Z,9.37
2019-01-25T13:35:34.708Z,8.50
2019-01-25T13:38:03.597Z,6.93
2019-01-25T13:40:32.660Z,9.77
2019-01-25T13:43:00.965Z,7.43
2019-01-25T13:45:30.000Z,8.67
2019-01-25T13:47:58.552Z,9.17
2019-01-25T13:50:27.883Z,7.50
2019-01-25T13:53:00.646Z,8.20
2019-01-25T13:55:29.381Z,9.73
2019-01-25T13:57:57.833Z,8.33
2019-01-25T14:00:31.109Z,8.13
2019-01-25T14:02:59.851Z,9.10
2019-01-25T14:05:28.561Z,10.10
2019-01-25T14:07:57.184Z,9.83
2019-01-25T14:10:28.375Z,10.90
2019-01-25T14:12:57.164Z,10.37
2019-01-25T14:15:25.791Z,8.80
2019-01-25T14:17:54.429Z,12.33
2019-01-25T14:20:24.832Z,9.97
2019-01-25T14:22:53.716Z,9.87
2019-01-25T14:25:22.345Z,10.23
2019-01-25T14:27:50.950Z,11.03
2019-01-25T14:30:32.352Z,12.27
2019-01-25T14:33:00.829Z,10.17
2019-01-25T14:35:29.568Z,10.33
2019-01-25T14:37:58.276Z,15.57
2019-01-25T14:40:26.790Z,14.40
2019-01-25T14:42:55.239Z,10.83
2019-01-25T14:45:24.153Z,7.47
2019-01-25T14:47:52.770Z,11.80
2019-01-25T14:50:22.369Z,9.77
2019-01-25T14:52:50.889Z,11.23
2019-01-25T14:55:19.528Z,10.40
2019-01-25T14:57:47.997Z,11.27
2019-01-25T15:00:16.630Z,13.03
2019-01-25T15:02:45.033Z,11.13
2019-01-25T15:05:15.826Z,10.73
2019-01-25T15:07:44.557Z,14.77
2019-01-25T15:10:16.769Z,9.53
2019-01-25T15:12:45.947Z,11.47
2019-01-25T15:15:14.598Z,7.90
2019-01-25T15:17:43.461Z,13.17
2019-01-25T15:20:18.295Z,10.47
2019-01-25T15:22:46.679Z,11.67
2019-01-25T15:25:15.392Z,6.20
2019-01-25T15:27:44.116Z,7.07
2019-01-25T15:30:15.921Z,8.93
2019-01-25T15:32:44.670Z,8.93
2019-01-25T15:35:14.333Z,8.13
2019-01-25T15:37:44.009Z,9.33
2019-01-25T15:40:13.384Z,10.33
2019-01-25T15:42:41.768Z,10.77
2019-01-25T15:45:11.617Z,7.53
2019-01-25T15:47:40.169Z,9.97
2019-01-25T15:50:16.786Z,8.43
2019-01-25T15:52:45.501Z,6.80
2019-01-25T15:55:14.393Z,8.20
2019-01-25T15:57:43.266Z,11.20
2019-01-25T16:00:13.731Z,7.97
2019-01-25T16:02:42.696Z,8.37
2019-01-25T16:05:14.240Z,9.53
2019-01-25T16:07:42.620Z,9.80
2019-01-25T16:10:14.613Z,13.80
2019-01-25T16:12:42.987Z,11.17
2019-01-25T16:15:14.407Z,13.57
2019-01-25T16:17:44.372Z,15.73
2019-01-25T16:20:13.820Z,16.37
2019-01-25T16:22:43.420Z,11.27
2019-01-25T16:25:17.501Z,15.67
2019-01-25T16:27:46.049Z,12.23
2019-01-25T16:30:25.516Z,16.00
2019-01-25T16:32:54.213Z,18.23
2019-01-25T16:35:22.527Z,15.80
2019-01-25T16:37:50.969Z,16.97
2019-01-25T16:40:20.346Z,13.57
2019-01-25T16:42:48.787Z,14.73
2019-01-25T16:45:20.420Z,13.60
2019-01-25T16:47:48.793Z,12.37
2019-01-25T16:50:23.642Z,12.90
2019-01-25T16:52:47.660Z,12.47
2019-01-25T16:55:16.381Z,13.10
2019-01-25T16:57:45.412Z,12.73
2019-01-25T17:00:24.317Z,15.50
2019-01-25T17:02:53.710Z,17.60
2019-01-25T17:05:22.309Z,14.43
2019-01-25T17:07:50.878Z,13.57
2019-01-25T17:10:19.294Z,14.33
2019-01-25T17:12:48.619Z,12.47
2019-01-25T17:15:17.384Z,13.67
2019-01-25T17:17:45.702Z,14.67
2019-01-25T17:20:19.159Z,12.37
2019-01-25T17:22:45.195Z,11.43
2019-01-25T17:25:13.877Z,11.53
2019-01-25T17:27:42.373Z,10.27
2019-01-25T17:30:22.575Z,9.33
2019-01-25T17:32:52.154Z,13.23
2019-01-25T17:35:21.719Z,11.20
2019-01-25T17:37:50.361Z,10.10
2019-01-25T17:40:21.623Z,8.93
2019-01-25T17:42:52.578Z,6.70
2019-01-25T17:45:21.783Z,8.13
2019-01-25T17:47:50.480Z,10.77
2019-01-25T17:50:19.205Z,11.60
2019-01-25T17:52:47.865Z,10.90
2019-01-25T17:55:17.025Z,11.57
2019-01-25T17:57:45.591Z,17.83
2019-01-25T18:00:30.344Z,9.93
2019-01-25T18:02:58.969Z,11.33
2019-01-25T18:05:28.530Z,12.20
2019-01-25T18:07:58.210Z,12.73
2019-01-25T18:10:26.665Z,10.80
2019-01-25T18:12:55.005Z,11.13
2019-01-25T18:15:23.725Z,10.97
2019-01-25T18:17:52.143Z,12.03
2019-01-25T18:20:20.824Z,14.43
2019-01-25T18:22:49.438Z,14.03
2019-01-25T18:25:22.113Z,15.70
2019-01-25T18:27:54.593Z,15.60
2019-01-25T18:30:30.184Z,16.20
2019-01-25T18:32:58.729Z,13.73
2019-01-25T18:35:27.169Z,15.53
2019-01-25T18:37:55.926Z,13.40
2019-01-25T18:40:24.366Z,10.90
2019-01-25T18:42:53.504Z,9.87
2019-01-25T18:45:22.709Z,9.63
2019-01-25T18:47:51.248Z,12.47
2019-01-25T18:50:19.766Z,11.83
2019-01-25T18:52:48.248Z,13.60
2019-01-25T18:55:18.396Z,13.87
2019-01-25T18:57:47.466Z,11.63
2019-01-25T19:00:18.071Z,9.63
2019-01-25T19:02:47.165Z,8.93
2019-01-25T19:05:16.972Z,10.13
2019-01-25T19:07:45.476Z,7.73
2019-01-25T19:10:17.068Z,8.20
2019-01-25T19:12:45.590Z,8.33
2019-01-25T19:15:16.419Z,10.63
2019-01-25T19:17:44.733Z,9.50
2019-01-25T19:20:14.017Z,8.73
2019-01-25T19:22:42.344Z,8.23
2019-01-25T19:25:11.101Z,9.27
2019-01-25T19:27:39.890Z,10.77
2019-01-25T19:30:20.546Z,13.13
2019-01-25T19:32:49.093Z,8.20
2019-01-25T19:35:17.771Z,9.43
2019-01-25T19:37:46.278Z,9.53
2019-01-25T19:40:15.926Z,15.50
2019-01-25T19:42:44.518Z,31.93
2019-01-25T19:45:16.467Z,12.83
2019-01-25T19:47:44.918Z,13.40
2019-01-25T19:50:15.190Z,21.03
2019-01-25T19:52:43.921Z,11.17
2019-01-25T19:55:17.990Z,7.13
2019-01-25T19:57:47.639Z,8.57
2019-01-25T20:00:19.818Z,8.47
2019-01-25T20:02:48.393Z,10.93
2019-01-25T20:05:18.874Z,8.87
2019-01-25T20:07:47.457Z,7.27
2019-01-25T20:10:16.465Z,7.23
2019-01-25T20:12:45.165Z,7.90
2019-01-25T20:15:19.383Z,10.70
2019-01-25T20:17:45.336Z,12.20
2019-01-25T20:20:19.669Z,10.20
2019-01-25T20:22:48.293Z,9.83
2019-01-25T20:25:16.905Z,9.83
2019-01-25T20:27:45.465Z,8.97
2019-01-25T20:30:17.634Z,7.67
2019-01-25T20:32:46.608Z,7.03
2019-01-25T20:35:16.971Z,8.10
2019-01-25T20:37:45.747Z,9.97
2019-01-25T20:40:15.197Z,9.27
2019-01-25T20:42:44.596Z,8.33
2019-01-25T20:45:15.777Z,8.80
2019-01-25T20:47:44.418Z,7.40
2019-01-25T20:50:15.935Z,10.23
2019-01-25T20:52:44.765Z,8.23
2019-01-25T20:55:15.441Z,10.90
2019-01-25T20:57:43.968Z,12.90
2019-01-25T21:00:15.807Z,15.63
2019-01-25T21:02:44.605Z,16.33
2019-01-25T21:05:13.705Z,18.90
2019-01-25T21:07:42.770Z,14.97
2019-01-25T21:10:13.889Z,16.13
2019-01-25T21:12:42.821Z,17.00
2019-01-25T21:15:12.780Z,18.43
2019-01-25T21:17:41.374Z,22.80
2019-01-25T21:20:12.748Z,16.77
2019-01-25T21:22:41.333Z,15.30
2019-01-25T21:25:10.076Z,18.90
2019-01-25T21:27:39.732Z,13.57
2019-01-25T21:30:11.870Z,14.07
2019-01-25T21:32:43.254Z,13.80
2019-01-25T21:35:15.009Z,13.83
2019-01-25T21:37:45.213Z,14.70
2019-01-25T21:40:16.397Z,17.53
2019-01-25T21:42:45.708Z,21.13
2019-01-25T21:45:16.997Z,15.40
2019-01-25T21:47:45.917Z,19.07
2019-01-25T21:50:21.369Z,19.00
2019-01-25T21:52:52.081Z,19.37
2019-01-25T21:55:21.053Z,15.80
2019-01-25T21:57:49.645Z,17.00
2019-01-25T22:00:23.929Z,18.17
2019-01-25T22:02:52.269Z,15.00
2019-01-25T22:05:21.125Z,15.67
2019-01-25T22:07:49.900Z,16.23
2019-01-25T22:10:30.234Z,14.27
2019-01-25T22:12:58.741Z,16.53
2019-01-25T22:15:27.345Z,15.27
2019-01-25T22:17:55.850Z,15.87
2019-01-25T22:20:26.837Z,13.47
2019-01-25T22:22:55.351Z,15.23
2019-01-25T22:25:24.126Z,16.77
2019-01-25T22:27:54.210Z,14.03
2019-01-25T22:30:24.085Z,13.53
2019-01-25T22:32:52.500Z,13.67
2019-01-25T22:35:21.232Z,13.63
2019-01-25T22:37:49.703Z,13.07
2019-01-25T22:40:24.397Z,13.17
2019-01-25T22:42:53.362Z,14.47
2019-01-25T22:45:24.268Z,14.07
2019-01-25T22:47:52.765Z,10.60
2019-01-25T22:50:23.269Z,11.17
2019-01-25T22:52:56.234Z,12.50
2019-01-25T22:55:25.673Z,12.40
2019-01-25T22:57:54.311Z,13.07
2019-01-25T23:00:51.009Z,14.47
2019-01-25T23:03:32.819Z,10.77
2019-01-25T23:06:29.453Z,14.27
2019-01-25T23:09:01.374Z,13.50
2019-01-25T23:11:31.885Z,10.70
2019-01-25T23:14:00.426Z,11.67
2019-01-25T23:16:28.902Z,17.23
2019-01-25T23:18:57.318Z,16.20
2019-01-25T23:21:25.860Z,13.90
2019-01-25T23:23:55.567Z,10.50
2019-01-25T23:26:24.093Z,8.77
2019-01-25T23:28:52.469Z,10.77
2019-01-25T23:31:21.065Z,11.03
2019-01-25T23:33:49.489Z,11.20
2019-01-25T23:36:18.357Z,9.47
2019-01-25T23:38:46.765Z,9.77
2019-01-25T23:41:15.585Z,8.00
2019-01-25T23:43:44.137Z,11.17
2019-01-25T23:46:13.926Z,8.70
2019-01-25T23:48:43.729Z,11.15
2019-01-25T23:51:12.204Z,9.17
2019-01-25T23:53:40.585Z,10.10
2019-01-25T23:56:08.897Z,9.70
2019-01-25T23:58:38.264Z,8.57
